Time;durP1;ratioP1;P1;durP2;ratioP2;P2;SDS_P1;SDS_P2;PMS_P1;PMS_P2;Temp;Humidity;BMP_temperature;BMP_pressure;BME280_temperature;BME280_humidity;BME280_pressure;Samples;Min_cycle;Max_cycle;Signal;HPM_P1;HPM_P2
2022/01/16 00:07:40;;;;;;;9.50;6.73;;;12.80;95.10;;;;;;10148414;29;20261;-83
2022/01/16 00:12:47;;;;;;;11.57;7.57;;;12.80;94.80;;;;;;10154049;29;20629;-83
2022/01/16 00:18:20;;;;;;;23.93;11.40;;;12.80;94.80;;;;;;10167779;29;20239;-83
2022/01/16 00:23:13;;;;;;;27.87;11.87;;;3.00;93.60;;;;;;10167834;29;20686;-83
2022/01/16 00:28:15;;;;;;;18.87;9.73;;;1.20;99.90;;;;;;10132784;29;20311;-83
2022/01/16 00:33:19;;;;;;;15.73;7.83;;;8.70;99.90;;;;;;10147373;29;20682;-83
2022/01/16 00:38:21;;;;;;;14.73;7.97;;;11.80;99.90;;;;;;10169867;29;20296;-84
2022/01/16 00:43:24;;;;;;;14.47;6.90;;;12.30;99.90;;;;;;10147091;29;20213;-83
2022/01/16 00:48:26;;;;;;;10.70;6.97;;;12.60;99.90;;;;;;10158623;29;20654;-83
2022/01/16 00:53:29;;;;;;;15.67;7.37;;;12.80;99.70;;;;;;10176231;29;20237;-83
2022/01/16 00:58:31;;;;;;;12.37;7.13;;;12.80;99.00;;;;;;10175975;29;20723;-83
2022/01/16 01:03:34;;;;;;;14.47;6.87;;;12.80;98.50;;;;;;10159049;29;20245;-84
2022/01/16 01:08:37;;;;;;;12.80;7.67;;;12.70;98.20;;;;;;10175364;29;20766;-83
2022/01/16 01:19:00;;;;;;;15.17;6.90;;;13.00;96.70;;;;;;10175214;29;20241;-83
2022/01/16 01:24:02;;;;;;;13.53;7.30;;;13.20;95.70;;;;;;10158420;29;20266;-83
2022/01/16 01:29:05;;;;;;;14.23;7.80;;;13.30;95.10;;;;;;10158109;29;20314;-83
2022/01/16 01:34:08;;;;;;;14.23;8.57;;;13.00;95.30;;;;;;10157424;29;20209;-83
2022/01/16 01:39:10;;;;;;;15.07;7.43;;;13.10;93.40;;;;;;10158002;29;20289;-84
2022/01/16 01:54:55;;;;;;;8.43;6.20;;;13.10;94.50;;;;;;10156869;29;21037;-83
2022/01/16 01:59:57;;;;;;;14.50;7.50;;;13.00;94.50;;;;;;10166666;29;20306;-83
2022/01/16 02:05:00;;;;;;;12.03;7.00;;;12.80;94.70;;;;;;10134234;29;20760;-83
2022/01/16 02:10:04;;;;;;;14.53;7.00;;;12.50;95.60;;;;;;10149119;29;20298;-84
2022/01/16 02:15:31;;;;;;;11.57;6.90;;;12.30;96.30;;;;;;10138757;29;20313;-84
2022/01/16 02:41:29;;;;;;;16.67;7.87;;;8.10;99.90;;;;;;10171644;29;20684;-83
2022/01/16 02:51:34;;;;;;;28.33;12.87;;;7.90;99.90;;;;;;10171734;29;20241;-83
2022/01/16 02:56:39;;;;;;;25.37;12.30;;;7.10;99.90;;;;;;10168664;29;20854;-84
2022/01/16 03:01:42;;;;;;;20.43;10.07;;;6.60;99.90;;;;;;10154412;29;20275;-83
2022/01/16 03:06:46;;;;;;;22.77;9.93;;;6.80;99.90;;;;;;10138409;29;20262;-84
2022/01/16 03:11:49;;;;;;;21.63;9.10;;;7.00;99.90;;;;;;10153713;29;20240;-83
2022/01/16 03:16:53;;;;;;;22.40;9.93;;;6.50;99.90;;;;;;10153942;29;20669;-83
2022/01/16 03:22:02;;;;;;;22.03;10.90;;;6.70;99.90;;;;;;10135601;29;20245;-83
2022/01/16 03:27:09;;;;;;;21.33;10.47;;;6.60;99.90;;;;;;10152664;29;20722;-83
2022/01/16 03:32:16;;;;;;;21.93;9.87;;;6.90;99.90;;;;;;10154203;29;20616;-84
2022/01/16 03:37:18;;;;;;;30.57;10.63;;;7.40;99.90;;;;;;10137169;29;20287;-83
2022/01/16 03:42:26;;;;;;;21.87;10.57;;;6.10;99.90;;;;;;10151695;29;20768;-84
2022/01/16 03:47:28;;;;;;;19.47;8.10;;;5.60;99.90;;;;;;10169249;29;20330;-84
2022/01/16 03:52:31;;;;;;;16.07;8.57;;;6.00;99.90;;;;;;10152364;29;20263;-84
2022/01/16 03:57:36;;;;;;;21.90;9.53;;;6.10;99.90;;;;;;10168881;29;20298;-84
2022/01/16 04:02:38;;;;;;;21.07;7.70;;;5.30;99.90;;;;;;10169120;29;20287;-84
2022/01/16 04:07:41;;;;;;;19.47;9.43;;;7.40;99.90;;;;;;10166704;29;20259;-83
2022/01/16 04:12:46;;;;;;;22.03;9.73;;;8.40;99.90;;;;;;10167873;29;20235;-83
2022/01/16 04:17:49;;;;;;;14.50;8.23;;;6.40;99.90;;;;;;10151517;29;20302;-83
2022/01/16 04:22:51;;;;;;;20.47;8.33;;;6.50;99.90;;;;;;10151873;29;20299;-83
2022/01/16 04:27:54;;;;;;;28.53;10.30;;;6.50;99.90;;;;;;10168556;29;20310;-83
2022/01/16 04:32:57;;;;;;;22.40;9.90;;;6.90;99.90;;;;;;10151480;29;20290;-84
2022/01/16 04:37:59;;;;;;;24.10;10.90;;;6.60;99.90;;;;;;10151334;29;20600;-84
2022/01/16 04:48:26;;;;;;;27.23;9.97;;;5.90;99.90;;;;;;10168474;29;20263;-83
2022/01/16 04:53:29;;;;;;;31.53;10.33;;;6.00;99.90;;;;;;10167932;29;20306;-83
2022/01/16 04:58:31;;;;;;;19.33;8.00;;;5.90;99.90;;;;;;10168241;29;20247;-83
2022/01/16 05:03:35;;;;;;;7.60;5.53;;;6.30;99.90;;;;;;10111494;29;20758;-83
2022/01/16 05:08:37;;;;;;;7.73;5.40;;;7.80;99.90;;;;;;10163497;29;20280;-84
2022/01/16 05:18:43;;;;;;;8.17;5.10;;;9.80;99.90;;;;;;10168385;29;20244;-83
2022/01/16 05:23:45;;;;;;;9.73;5.73;;;8.70;99.90;;;;;;10173602;29;20697;-83
2022/01/16 05:28:48;;;;;;;9.63;5.67;;;10.10;99.90;;;;;;10174809;29;20697;-84
2022/01/16 05:33:51;;;;;;;8.57;5.60;;;11.30;99.90;;;;;;10157431;29;20256;-83
2022/01/16 05:38:54;;;;;;;6.67;5.10;;;11.00;99.90;;;;;;10158198;29;20235;-84
2022/01/16 05:43:57;;;;;;;10.20;5.93;;;11.70;99.90;;;;;;10157011;29;20252;-83
2022/01/16 05:48:59;;;;;;;9.70;5.50;;;11.30;94.00;;;;;;10174497;29;20329;-83
2022/01/16 05:54:02;;;;;;;12.43;6.00;;;10.30;99.90;;;;;;10157465;29;20233;-83
2022/01/16 05:59:04;;;;;;;17.67;6.20;;;10.60;99.90;;;;;;10156804;29;20709;-83
2022/01/16 06:04:07;;;;;;;7.43;5.37;;;10.10;97.50;;;;;;10156974;29;20205;-83
2022/01/16 06:09:09;;;;;;;12.53;7.03;;;10.10;99.90;;;;;;10154701;29;20677;-83
2022/01/16 06:14:12;;;;;;;24.67;8.17;;;9.10;99.90;;;;;;10150830;29;20236;-82
2022/01/16 06:19:14;;;;;;;17.37;7.73;;;8.30;99.90;;;;;;10135111;29;20232;-83
2022/01/16 06:24:17;;;;;;;23.47;8.10;;;7.30;99.90;;;;;;10158553;29;20595;-84
2022/01/16 06:29:19;;;;;;;22.80;10.70;;;7.00;99.90;;;;;;10151544;29;20236;-83
2022/01/16 06:34:22;;;;;;;27.07;10.90;;;7.10;99.90;;;;;;10164690;29;20252;-83
2022/01/16 06:39:25;;;;;;;15.27;8.07;;;6.60;99.90;;;;;;10145614;29;20337;-83
2022/01/16 06:44:27;;;;;;;10.37;6.17;;;7.30;99.90;;;;;;10147647;29;20241;-83
2022/01/16 06:49:30;;;;;;;13.67;6.43;;;7.90;99.90;;;;;;10180375;29;20265;-83
2022/01/16 06:54:33;;;;;;;19.47;8.77;;;7.90;99.90;;;;;;10175553;29;20208;-83
2022/01/16 06:59:38;;;;;;;18.90;8.13;;;7.40;99.90;;;;;;10177718;29;20216;-83
2022/01/16 07:04:40;;;;;;;20.27;7.57;;;6.90;99.90;;;;;;10162356;29;20287;-82
2022/01/16 07:09:43;;;;;;;26.40;9.40;;;7.10;99.90;;;;;;10176210;29;20231;-83
2022/01/16 07:14:47;;;;;;;16.57;7.60;;;6.90;99.90;;;;;;10174006;29;20208;-83
2022/01/16 07:19:50;;;;;;;20.80;8.90;;;6.80;99.90;;;;;;10125864;29;20235;-83
2022/01/16 07:24:53;;;;;;;18.67;7.80;;;6.10;99.90;;;;;;10149138;29;20243;-83
2022/01/16 07:29:55;;;;;;;19.70;9.03;;;6.20;99.90;;;;;;10147341;29;20696;-83
2022/01/16 07:34:58;;;;;;;21.43;7.33;;;5.90;99.90;;;;;;10150764;29;20235;-83
2022/01/16 07:40:01;;;;;;;16.60;7.30;;;6.20;99.90;;;;;;10155357;29;20626;-82
2022/01/16 07:45:04;;;;;;;24.03;8.63;;;6.30;99.90;;;;;;10134154;29;20236;-83
2022/01/16 07:50:10;;;;;;;19.67;7.90;;;5.90;99.90;;;;;;10169625;29;20271;-82
2022/01/16 07:55:24;;;;;;;23.07;10.83;;;5.90;99.90;;;;;;10153671;29;20212;-83
2022/01/16 08:00:27;;;;;;;21.50;10.93;;;6.10;99.90;;;;;;10170697;29;20341;-83
2022/01/16 08:05:30;;;;;;;28.10;10.00;;;6.10;99.90;;;;;;10171604;29;20287;-83
2022/01/16 08:10:33;;;;;;;21.30;9.93;;;5.80;99.90;;;;;;10170473;29;20766;-83
2022/01/16 08:15:35;;;;;;;19.10;9.00;;;5.80;99.90;;;;;;10153107;29;20685;-82
2022/01/16 08:20:38;;;;;;;27.30;12.37;;;5.70;99.90;;;;;;10168493;29;20235;-83
2022/01/16 08:25:41;;;;;;;15.03;9.20;;;5.60;99.90;;;;;;10162196;29;20217;-82
2022/01/16 08:30:43;;;;;;;31.83;12.87;;;5.80;99.90;;;;;;10132654;29;20255;-83
2022/01/16 08:35:46;;;;;;;25.47;13.33;;;5.70;99.90;;;;;;10136828;29;20253;-83
2022/01/16 08:40:49;;;;;;;31.67;15.17;;;5.50;99.90;;;;;;10142418;29;20273;-83
2022/01/16 08:45:51;;;;;;;29.77;14.47;;;5.50;99.90;;;;;;10146382;29;20421;-83
2022/01/16 08:50:54;;;;;;;30.20;15.23;;;5.30;99.90;;;;;;10138215;29;20262;-82
2022/01/16 08:55:58;;;;;;;44.60;20.50;;;5.20;99.90;;;;;;10137258;29;20216;-82
2022/01/16 09:01:01;;;;;;;33.30;15.93;;;4.80;99.90;;;;;;10156716;29;20231;-82
2022/01/16 09:06:04;;;;;;;24.27;12.83;;;4.70;99.90;;;;;;10145606;29;20239;-82
2022/01/16 09:11:07;;;;;;;37.40;16.63;;;6.20;99.90;;;;;;10155504;29;20251;-82
2022/01/16 09:16:09;;;;;;;21.33;12.07;;;6.00;99.90;;;;;;10164243;29;20236;-82
2022/01/16 09:21:12;;;;;;;40.83;19.27;;;5.50;99.90;;;;;;10135106;29;20769;-82
2022/01/16 09:26:15;;;;;;;36.70;19.10;;;4.70;99.90;;;;;;10133562;29;20705;-83
2022/01/16 09:31:17;;;;;;;37.10;17.93;;;4.80;99.90;;;;;;10102625;29;20658;-82
2022/01/16 09:36:21;;;;;;;43.83;19.03;;;4.40;99.90;;;;;;10112683;29;20290;-82
2022/01/16 09:41:23;;;;;;;34.70;17.10;;;4.70;99.90;;;;;;10113150;29;20244;-84
2022/01/16 09:46:26;;;;;;;35.07;16.63;;;4.90;99.90;;;;;;10141973;29;20292;-83
2022/01/16 09:51:30;;;;;;;51.57;23.57;;;6.50;99.90;;;;;;10143573;29;20322;-83
2022/01/16 09:56:32;;;;;;;49.80;23.77;;;6.50;99.90;;;;;;10120307;29;20220;-83
2022/01/16 10:01:40;;;;;;;46.53;23.17;;;2.40;99.90;;;;;;10132075;29;20298;-83
2022/01/16 10:06:55;;;;;;;47.33;23.47;;;1.70;99.90;;;;;;10116662;29;20274;-83
2022/01/16 10:12:01;;;;;;;59.00;25.97;;;1.60;99.90;;;;;;10133784;29;20237;-84
2022/01/16 10:17:18;;;;;;;56.83;26.83;;;1.50;99.90;;;;;;10102575;29;20268;-83
2022/01/16 10:22:20;;;;;;;60.53;25.77;;;1.50;99.90;;;;;;10133396;29;20242;-84
2022/01/16 10:27:22;;;;;;;71.87;28.23;;;1.60;99.90;;;;;;10140055;29;20812;-83
2022/01/16 10:32:28;;;;;;;57.87;26.03;;;1.70;99.90;;;;;;10173665;29;20296;-83
2022/01/16 10:37:30;;;;;;;21.80;10.73;;;1.70;99.90;;;;;;10173724;29;20241;-83
2022/01/16 10:42:39;;;;;;;34.17;16.33;;;5.60;99.90;;;;;;10174359;29;20215;-84
2022/01/16 10:47:51;;;;;;;13.33;8.80;;;7.00;99.90;;;;;;10156714;29;20708;-84
2022/01/16 10:53:15;;;;;;;15.57;8.57;;;8.60;99.90;;;;;;10171648;29;20657;-84
2022/01/16 10:58:29;;;;;;;22.30;12.27;;;10.00;99.90;;;;;;10156966;29;20240;-84
2022/01/16 11:03:49;;;;;;;25.27;13.03;;;11.40;99.90;;;;;;10151570;29;20240;-84
2022/01/16 11:08:56;;;;;;;15.37;8.60;;;11.70;99.90;;;;;;10167097;29;20944;-84
2022/01/16 11:14:04;;;;;;;17.30;9.53;;;11.90;99.90;;;;;;10163680;29;20239;-84
2022/01/16 11:19:09;;;;;;;14.17;8.87;;;12.00;99.90;;;;;;10168911;29;20291;-85
2022/01/16 11:29:20;;;;;;;12.40;9.10;;;12.10;98.90;;;;;;10145227;29;20267;-84
2022/01/16 11:34:22;;;;;;;14.87;8.60;;;12.30;96.80;;;;;;10167529;29;20241;-84
2022/01/16 11:39:35;;;;;;;18.30;8.97;;;11.80;98.60;;;;;;10152870;29;20652;-84
2022/01/16 11:44:37;;;;;;;20.77;11.87;;;13.00;96.00;;;;;;10162489;29;20633;-84
2022/01/16 11:49:42;;;;;;;12.13;8.30;;;13.00;92.60;;;;;;10168520;29;20687;-84
2022/01/16 11:54:47;;;;;;;32.10;16.20;;;13.00;95.10;;;;;;10169391;29;20237;-84
2022/01/16 12:00:14;;;;;;;16.67;9.70;;;12.20;89.70;;;;;;10168151;29;20240;-84
2022/01/16 12:05:27;;;;;;;20.37;10.90;;;11.80;96.80;;;;;;10164918;29;20296;-85
2022/01/16 12:10:36;;;;;;;32.73;19.87;;;12.40;97.00;;;;;;10166849;29;20723;-84
2022/01/16 12:15:38;;;;;;;15.10;8.63;;;11.50;86.60;;;;;;10150921;29;20240;-84
2022/01/16 12:20:40;;;;;;;41.40;21.53;;;11.80;98.30;;;;;;10167519;29;20712;-84
2022/01/16 12:25:56;;;;;;;47.80;22.53;;;10.20;90.40;;;;;;10151455;29;20247;-84
2022/01/16 12:31:02;;;;;;;41.37;20.73;;;10.20;80.60;;;;;;10150806;29;20780;-84
2022/01/16 12:36:13;;;;;;;41.30;22.47;;;11.00;79.90;;;;;;10168087;29;20322;-84
2022/01/16 12:41:26;;;;;;;46.03;24.30;;;11.10;76.10;;;;;;10151382;29;20280;-84
2022/01/16 12:46:29;;;;;;;36.10;18.57;;;10.00;76.40;;;;;;10167304;29;20243;-84
2022/01/16 12:51:34;;;;;;;36.80;18.03;;;10.80;83.70;;;;;;10151555;29;20265;-84
2022/01/16 12:56:39;;;;;;;33.03;17.37;;;11.80;81.10;;;;;;10150557;29;20780;-84
2022/01/16 13:01:57;;;;;;;44.30;22.87;;;12.30;79.90;;;;;;10166500;29;20247;-84
2022/01/16 13:07:03;;;;;;;36.17;18.80;;;12.40;76.60;;;;;;10168190;29;20657;-84
2022/01/16 13:12:07;;;;;;;36.03;18.63;;;12.40;80.70;;;;;;10167607;29;20260;-84
2022/01/16 13:17:12;;;;;;;32.57;17.93;;;12.40;81.60;;;;;;10150184;29;20312;-84
2022/01/16 13:22:16;;;;;;;29.87;17.47;;;12.60;82.10;;;;;;10167966;29;20780;-85
2022/01/16 13:27:28;;;;;;;31.43;17.73;;;13.00;80.60;;;;;;10148829;29;20267;-84
2022/01/16 13:32:33;;;;;;;37.67;18.87;;;9.40;72.80;;;;;;10150307;29;20259;-85
2022/01/16 13:37:38;;;;;;;33.67;17.67;;;5.60;86.40;;;;;;10118776;29;20236;-83
2022/01/16 13:48:15;;;;;;;41.10;19.57;;;3.70;94.90;;;;;;10136893;29;20811;-84
2022/01/16 13:53:23;;;;;;;27.23;13.13;;;2.90;99.90;;;;;;10166091;29;20239;-84
2022/01/16 13:58:32;;;;;;;22.00;11.77;;;9.20;99.90;;;;;;10175315;29;20248;-85
2022/01/16 14:03:34;;;;;;;22.37;12.27;;;11.80;93.00;;;;;;10157533;29;20211;-84
2022/01/16 14:08:39;;;;;;;21.27;11.53;;;12.30;90.20;;;;;;10145630;29;20254;-84
2022/01/16 14:13:50;;;;;;;20.47;12.23;;;12.70;87.10;;;;;;10174823;29;20212;-85
2022/01/16 14:24:06;;;;;;;21.07;12.20;;;13.10;84.40;;;;;;10174242;29;20680;-84
2022/01/16 14:29:10;;;;;;;20.70;12.50;;;13.20;83.50;;;;;;10173859;29;20268;-85
2022/01/16 14:34:16;;;;;;;18.27;10.88;;;13.20;83.30;;;;;;9896247;29;10001128;-84
2022/01/16 14:39:22;;;;;;;20.13;11.73;;;13.00;83.60;;;;;;10167452;29;20472;-84
2022/01/16 14:44:30;;;;;;;22.57;11.93;;;13.00;83.60;;;;;;10167321;29;20707;-84
2022/01/16 14:49:33;;;;;;;22.20;12.70;;;13.10;83.70;;;;;;10166804;29;20445;-84
2022/01/16 14:54:36;;;;;;;24.70;11.97;;;13.10;83.50;;;;;;10165380;29;20753;-84
2022/01/16 14:59:38;;;;;;;22.70;12.03;;;13.10;83.50;;;;;;10166826;29;20245;-85
2022/01/16 15:04:41;;;;;;;23.73;12.13;;;13.10;83.00;;;;;;10149489;29;20240;-84
2022/01/16 15:09:44;;;;;;;18.33;11.37;;;13.20;83.20;;;;;;10149769;29;20324;-84
2022/01/16 15:14:48;;;;;;;17.67;11.23;;;13.20;83.10;;;;;;10148741;29;20248;-84
2022/01/16 15:19:51;;;;;;;22.73;12.40;;;13.10;83.10;;;;;;10149780;29;20251;-85
2022/01/16 15:24:54;;;;;;;18.67;12.13;;;12.90;83.80;;;;;;10165390;29;20239;-84
2022/01/16 15:29:56;;;;;;;18.77;11.50;;;13.10;83.30;;;;;;10148587;29;20305;-84
2022/01/16 15:34:59;;;;;;;18.47;11.00;;;13.20;82.10;;;;;;10153189;29;20249;-84
2022/01/16 15:40:02;;;;;;;19.83;10.50;;;13.10;83.00;;;;;;10158248;29;20766;-84
2022/01/16 15:45:04;;;;;;;16.20;10.73;;;13.10;83.00;;;;;;10146667;29;20249;-84
2022/01/16 15:50:07;;;;;;;22.03;11.60;;;13.20;82.70;;;;;;10149705;29;20264;-84
2022/01/16 15:55:10;;;;;;;16.93;11.20;;;13.10;83.40;;;;;;10168994;29;20248;-84
2022/01/16 16:00:14;;;;;;;15.80;10.60;;;13.20;82.80;;;;;;10160650;29;20269;-84
2022/01/16 16:05:21;;;;;;;19.73;10.83;;;13.10;82.70;;;;;;10150725;29;20271;-85
2022/01/16 16:10:24;;;;;;;17.43;11.33;;;13.20;82.30;;;;;;10167276;29;20267;-85
2022/01/16 16:15:26;;;;;;;20.80;11.43;;;13.10;82.20;;;;;;10167267;29;20214;-84
2022/01/16 16:20:29;;;;;;;15.40;10.87;;;13.20;82.20;;;;;;10151840;29;20243;-84
2022/01/16 16:25:32;;;;;;;18.27;10.40;;;13.20;82.30;;;;;;10168798;29;20687;-84
2022/01/16 16:30:35;;;;;;;19.13;10.50;;;13.20;81.90;;;;;;10168817;29;20265;-84
2022/01/16 16:35:37;;;;;;;16.27;10.97;;;13.10;82.30;;;;;;10168010;29;20241;-84
2022/01/16 16:40:40;;;;;;;13.33;9.87;;;13.10;82.20;;;;;;10166243;29;20253;-83
2022/01/16 16:45:42;;;;;;;16.83;9.87;;;13.00;82.60;;;;;;10166755;29;20233;-84
2022/01/16 16:50:46;;;;;;;16.17;9.40;;;12.90;82.50;;;;;;10147409;29;20268;-84
2022/01/16 16:55:48;;;;;;;16.70;9.77;;;12.90;82.60;;;;;;10165708;29;20613;-84
2022/01/16 17:00:51;;;;;;;25.47;15.33;;;13.00;82.50;;;;;;10152107;29;20271;-83
2022/01/16 17:05:55;;;;;;;26.17;14.33;;;9.70;77.60;;;;;;10168099;29;20239;-90
2022/01/16 17:10:57;;;;;;;22.80;13.37;;;10.10;79.70;;;;;;10168487;29;20267;-90
2022/01/16 17:16:01;;;;;;;22.83;12.43;;;11.30;76.60;;;;;;10179224;29;20258;-90
2022/01/16 17:21:04;;;;;;;20.97;12.70;;;11.90;74.40;;;;;;10174375;29;20260;-90
2022/01/16 17:26:06;;;;;;;21.63;11.80;;;12.20;73.60;;;;;;10177182;29;20244;-90
2022/01/16 17:31:09;;;;;;;22.83;12.03;;;12.40;73.00;;;;;;10169356;29;20263;-90
2022/01/16 17:36:12;;;;;;;21.33;12.07;;;12.50;73.10;;;;;;10174936;29;20200;-90
2022/01/16 17:41:14;;;;;;;19.93;11.33;;;12.60;72.90;;;;;;10175779;29;20216;-90
2022/01/16 17:46:17;;;;;;;17.97;11.83;;;12.50;73.60;;;;;;10174351;29;20247;-89
2022/01/16 17:51:20;;;;;;;28.10;14.50;;;12.70;73.60;;;;;;10173315;29;20263;-86
2022/01/16 17:56:23;;;;;;;46.63;16.23;;;9.40;78.60;;;;;;10172633;29;20295;-86
2022/01/16 18:01:26;;;;;;;42.20;16.00;;;9.60;82.80;;;;;;9828911;29;10000122;-85
2022/01/16 18:06:31;;;;;;;41.43;13.07;;;10.90;79.50;;;;;;10153869;29;20239;-86
2022/01/16 18:11:35;;;;;;;49.40;13.60;;;11.40;78.30;;;;;;10170755;29;20291;-86
2022/01/16 18:16:37;;;;;;;34.93;12.50;;;11.60;77.70;;;;;;10171249;29;20231;-86
2022/01/16 18:21:40;;;;;;;35.97;11.10;;;11.80;77.90;;;;;;10170559;29;20247;-86
2022/01/16 18:26:47;;;;;;;36.53;11.80;;;11.90;78.40;;;;;;10144228;29;20712;-86
2022/01/16 18:31:49;;;;;;;26.57;11.93;;;11.80;78.70;;;;;;10161043;29;20315;-86
2022/01/16 18:36:52;;;;;;;26.53;11.93;;;11.80;79.00;;;;;;10150954;29;20235;-87
2022/01/16 18:41:58;;;;;;;24.73;10.13;;;11.80;79.50;;;;;;10170140;29;20246;-87
2022/01/16 18:47:03;;;;;;;24.63;9.63;;;12.00;79.50;;;;;;10170537;29;20240;-87
2022/01/16 18:52:05;;;;;;;20.30;9.17;;;12.00;79.60;;;;;;10171498;29;20247;-87
2022/01/16 18:57:15;;;;;;;21.67;9.47;;;12.20;79.70;;;;;;10155209;29;20224;-87
2022/01/16 19:02:18;;;;;;;23.20;9.50;;;12.10;80.30;;;;;;10169725;29;20701;-87
2022/01/16 19:07:20;;;;;;;18.37;8.73;;;12.10;80.40;;;;;;10170170;29;20235;-87
2022/01/16 19:12:23;;;;;;;13.47;8.13;;;12.30;80.20;;;;;;10170306;29;20259;-87
2022/01/16 19:17:25;;;;;;;16.07;8.07;;;12.40;80.00;;;;;;10170679;29;20239;-87
2022/01/16 19:22:28;;;;;;;16.53;8.20;;;12.30;80.30;;;;;;10170708;29;20715;-86
2022/01/16 19:27:30;;;;;;;17.60;7.70;;;12.20;80.70;;;;;;10169749;29;20327;-87
2022/01/16 19:32:36;;;;;;;13.00;7.80;;;12.20;81.20;;;;;;10173278;29;20737;-87
2022/01/16 19:37:41;;;;;;;15.47;7.97;;;11.90;81.90;;;;;;10186191;29;20727;-87
2022/01/16 19:43:09;;;;;;;15.00;8.37;;;12.30;81.10;;;;;;10186428;29;20298;-88
2022/01/16 19:48:12;;;;;;;14.93;8.03;;;12.40;81.00;;;;;;10201183;29;20247;-87
2022/01/16 19:53:15;;;;;;;17.17;8.10;;;12.40;81.20;;;;;;10164271;29;20270;-89
2022/01/16 19:58:20;;;;;;;15.07;7.80;;;12.30;81.50;;;;;;10128757;29;20240;-89
2022/01/16 20:03:23;;;;;;;10.87;7.70;;;12.00;82.60;;;;;;10164595;29;20243;-89
2022/01/16 20:08:25;;;;;;;11.17;7.40;;;12.00;82.40;;;;;;10171733;29;20231;-88
2022/01/16 20:13:28;;;;;;;13.53;8.63;;;12.10;82.50;;;;;;10164308;29;20290;-89
2022/01/16 20:18:32;;;;;;;15.30;7.60;;;12.20;82.40;;;;;;10174026;29;20888;-88
2022/01/16 20:23:34;;;;;;;12.93;7.50;;;12.30;82.30;;;;;;10173014;29;20211;-89
2022/01/16 20:28:39;;;;;;;11.17;6.93;;;12.30;82.70;;;;;;10155777;29;20250;-89
2022/01/16 20:33:42;;;;;;;10.40;8.17;;;12.20;82.40;;;;;;10171313;29;20318;-89
2022/01/16 20:38:44;;;;;;;13.20;8.03;;;12.40;82.40;;;;;;10169794;29;20692;-89
2022/01/16 20:43:47;;;;;;;11.77;8.20;;;12.30;82.40;;;;;;10187699;29;20693;-89
2022/01/16 20:48:51;;;;;;;12.77;7.83;;;12.30;82.90;;;;;;10205677;29;20234;-88
2022/01/16 20:53:53;;;;;;;11.07;7.30;;;12.40;82.30;;;;;;10190517;29;20255;-87
2022/01/16 20:58:56;;;;;;;11.00;7.63;;;12.30;82.60;;;;;;10170680;29;20303;-88
2022/01/16 21:03:59;;;;;;;11.33;6.83;;;12.10;83.40;;;;;;10175118;29;20274;-87
2022/01/16 21:09:03;;;;;;;12.00;7.87;;;12.30;83.00;;;;;;10177295;29;20287;-87
2022/01/16 21:14:09;;;;;;;13.80;7.57;;;12.10;83.50;;;;;;10180319;29;20270;-88
2022/01/16 21:19:12;;;;;;;11.37;7.37;;;12.30;83.90;;;;;;10210110;29;20247;-87
2022/01/16 21:24:16;;;;;;;11.27;6.97;;;12.30;83.30;;;;;;10165423;29;20729;-88
2022/01/16 21:29:18;;;;;;;11.10;7.50;;;12.40;82.80;;;;;;10173830;29;20256;-88
2022/01/16 21:34:21;;;;;;;11.43;7.20;;;12.40;83.00;;;;;;10174130;29;20259;-87
2022/01/16 21:39:23;;;;;;;12.70;7.50;;;12.40;82.90;;;;;;10144111;29;20235;-89
2022/01/16 21:44:26;;;;;;;11.10;7.07;;;12.40;83.00;;;;;;10172898;29;20247;-89
2022/01/16 21:49:28;;;;;;;14.00;8.90;;;12.50;82.70;;;;;;10173323;29;20302;-89
2022/01/16 21:54:31;;;;;;;13.80;8.67;;;12.40;83.10;;;;;;10172937;29;20292;-89
2022/01/16 21:59:33;;;;;;;12.13;7.60;;;12.50;82.80;;;;;;10172889;29;20243;-88
2022/01/16 22:04:36;;;;;;;8.97;6.77;;;12.50;82.90;;;;;;10173065;29;20752;-88
2022/01/16 22:09:38;;;;;;;11.53;7.87;;;12.30;83.30;;;;;;10173071;29;20243;-86
2022/01/16 22:14:41;;;;;;;10.77;7.07;;;12.30;83.50;;;;;;10148002;29;20713;-87
2022/01/16 22:19:44;;;;;;;13.00;8.13;;;12.30;83.90;;;;;;10151423;29;20653;-87
2022/01/16 22:24:47;;;;;;;13.17;8.13;;;12.30;83.50;;;;;;10172752;29;20260;-86
2022/01/16 22:29:50;;;;;;;13.17;8.07;;;12.40;83.40;;;;;;10149868;29;20264;-88
2022/01/16 22:34:53;;;;;;;13.83;8.77;;;12.40;83.20;;;;;;10156249;29;20276;-86
2022/01/16 22:39:55;;;;;;;11.97;8.00;;;12.50;83.10;;;;;;10178386;29;20286;-90
2022/01/16 22:44:59;;;;;;;13.97;8.60;;;12.40;83.00;;;;;;10165649;29;20299;-87
2022/01/16 22:50:02;;;;;;;12.20;7.97;;;12.50;82.60;;;;;;10149611;29;20693;-87
2022/01/16 22:55:05;;;;;;;14.97;8.00;;;12.40;83.10;;;;;;10155199;29;20240;-87
2022/01/16 23:00:15;;;;;;;11.03;7.50;;;12.40;83.30;;;;;;10175870;29;20599;-87
2022/01/16 23:05:18;;;;;;;12.60;8.53;;;12.40;83.50;;;;;;10156228;29;20327;-86
2022/01/16 23:10:20;;;;;;;11.57;7.80;;;12.40;83.30;;;;;;10159674;29;20323;-87
2022/01/16 23:15:23;;;;;;;13.93;7.90;;;12.30;83.30;;;;;;10159513;29;20247;-87
2022/01/16 23:20:25;;;;;;;17.53;9.10;;;12.40;83.20;;;;;;10150891;29;20243;-87
2022/01/16 23:25:28;;;;;;;12.13;7.83;;;12.40;83.00;;;;;;10141451;29;20235;-87
2022/01/16 23:30:30;;;;;;;12.57;7.97;;;12.50;83.10;;;;;;10135205;29;20720;-87
2022/01/16 23:35:33;;;;;;;13.77;8.50;;;12.60;82.80;;;;;;10148691;29;20304;-87
2022/01/16 23:40:44;;;;;;;14.47;8.27;;;12.50;82.60;;;;;;10547753;27;20540;-83
2022/01/16 23:45:48;;;;;;;13.90;9.50;;;12.50;82.70;;;;;;10509928;28;20280;-80
2022/01/16 23:50:51;;;;;;;14.00;8.83;;;12.60;82.60;;;;;;10521249;28;20237;-79
2022/01/16 23:55:53;;;;;;;10.67;7.23;;;12.60;82.20;;;;;;10531792;28;20221;-80
